Time;durP1;ratioP1;P1;durP2;ratioP2;P2;SDS_P1;SDS_P2;PMS_P1;PMS_P2;Temp;Humidity;BMP_temperature;BMP_pressure;BME280_temperature;BME280_humidity;BME280_pressure;Samples;Min_cycle;Max_cycle;Signal;HPM_P1;HPM_P2
2022/03/07 00:00:49;;;;;;;19.80;9.73;;;-2.00;99.90;;;;;;4928630;29;20051;-86
2022/03/07 00:03:15;;;;;;;20.40;9.90;;;-2.10;99.90;;;;;;4918541;29;20448;-86
2022/03/07 00:05:40;;;;;;;20.97;9.97;;;-2.10;99.90;;;;;;4935696;29;20432;-86
2022/03/07 00:08:06;;;;;;;21.00;9.93;;;-2.10;99.90;;;;;;4917630;29;20052;-86
2022/03/07 00:10:32;;;;;;;19.50;10.90;;;-2.10;99.90;;;;;;4918621;29;20040;-86
2022/03/07 00:12:57;;;;;;;21.87;10.20;;;-2.10;99.90;;;;;;4918948;29;20059;-86
2022/03/07 00:15:23;;;;;;;21.47;10.63;;;-2.10;99.90;;;;;;4917919;29;20047;-86
2022/03/07 00:17:48;;;;;;;21.83;10.30;;;-2.10;99.90;;;;;;4919056;29;20051;-86
2022/03/07 00:20:14;;;;;;;17.90;9.33;;;-2.10;99.90;;;;;;4918288;29;20051;-86
2022/03/07 00:22:40;;;;;;;22.37;10.30;;;-2.10;99.90;;;;;;4918553;29;20048;-85
2022/03/07 00:25:06;;;;;;;23.67;10.67;;;-2.20;99.90;;;;;;4918761;29;20048;-86
2022/03/07 00:27:31;;;;;;;21.73;10.17;;;-2.20;99.90;;;;;;4917512;29;20408;-85
2022/03/07 00:29:57;;;;;;;19.53;9.63;;;-2.20;99.90;;;;;;4918223;29;20126;-86
2022/03/07 00:32:22;;;;;;;19.37;10.23;;;-2.20;99.90;;;;;;4918029;29;20044;-86
2022/03/07 00:34:48;;;;;;;20.73;10.03;;;-2.20;99.90;;;;;;4917876;29;20219;-85
2022/03/07 00:37:14;;;;;;;21.57;9.30;;;-2.30;99.90;;;;;;4918015;29;20058;-85
2022/03/07 00:39:40;;;;;;;19.47;9.83;;;-2.20;99.90;;;;;;4935141;29;20523;-85
2022/03/07 00:42:05;;;;;;;18.73;9.33;;;-2.30;99.90;;;;;;4917327;29;20083;-85
2022/03/07 00:44:31;;;;;;;19.73;9.67;;;-2.30;99.90;;;;;;4935152;29;20050;-86
2022/03/07 00:46:57;;;;;;;20.53;10.23;;;-2.30;99.90;;;;;;4918314;29;20051;-85
2022/03/07 00:49:22;;;;;;;20.57;10.23;;;-2.40;99.90;;;;;;4917014;29;20079;-85
2022/03/07 00:51:48;;;;;;;21.37;10.07;;;-2.30;99.90;;;;;;4935228;29;20043;-85
2022/03/07 00:54:13;;;;;;;21.70;11.20;;;-2.40;99.90;;;;;;4917789;29;20119;-85
2022/03/07 00:56:39;;;;;;;22.37;10.50;;;-2.40;99.90;;;;;;4917487;29;20051;-85
2022/03/07 00:59:06;;;;;;;20.33;9.80;;;-2.40;99.90;;;;;;4917840;29;20042;-85
2022/03/07 01:01:31;;;;;;;19.83;10.80;;;-2.40;99.90;;;;;;4921728;29;20130;-85
2022/03/07 01:03:57;;;;;;;20.83;10.87;;;-2.50;99.90;;;;;;4921091;29;20555;-85
2022/03/07 01:06:22;;;;;;;25.07;11.37;;;-2.50;99.90;;;;;;4921879;29;20039;-85
2022/03/07 01:08:48;;;;;;;21.70;10.60;;;-2.40;99.90;;;;;;4921256;29;20058;-85
2022/03/07 01:11:14;;;;;;;20.90;10.50;;;-2.50;99.90;;;;;;4920450;29;20058;-85
2022/03/07 01:13:39;;;;;;;21.70;10.50;;;-2.50;99.90;;;;;;4921496;29;20059;-85
2022/03/07 01:16:05;;;;;;;19.80;10.30;;;-2.50;99.90;;;;;;4921263;29;20062;-85
2022/03/07 01:18:31;;;;;;;19.77;9.87;;;-2.30;99.90;;;;;;4921088;29;20093;-85
2022/03/07 01:20:56;;;;;;;24.70;11.20;;;-2.50;99.90;;;;;;4921534;29;20496;-85
2022/03/07 01:23:22;;;;;;;20.10;10.43;;;-2.50;99.90;;;;;;4937962;29;20051;-85
2022/03/07 01:25:47;;;;;;;22.40;10.93;;;-2.50;99.90;;;;;;4920975;29;20046;-84
2022/03/07 01:28:13;;;;;;;21.70;10.60;;;-2.50;99.90;;;;;;4938329;29;20051;-85
2022/03/07 01:30:38;;;;;;;22.23;10.87;;;-2.40;99.90;;;;;;4938347;29;20075;-84
2022/03/07 01:33:04;;;;;;;20.77;10.93;;;-2.60;99.90;;;;;;4920203;29;20048;-84
2022/03/07 01:35:30;;;;;;;21.63;10.30;;;-2.60;99.90;;;;;;4921451;29;20062;-85
2022/03/07 01:37:55;;;;;;;20.90;9.97;;;-2.70;99.90;;;;;;4920278;29;20042;-85
2022/03/07 01:40:21;;;;;;;20.23;9.80;;;-2.70;99.90;;;;;;4920860;29;20051;-85
2022/03/07 01:42:46;;;;;;;18.47;9.63;;;-2.70;99.90;;;;;;4921138;29;20138;-85
2022/03/07 01:45:18;;;;;;;21.60;9.90;;;-2.50;99.90;;;;;;4920229;29;20047;-84
2022/03/07 01:47:45;;;;;;;21.10;9.80;;;-2.70;99.90;;;;;;4921130;29;20127;-85
2022/03/07 01:50:13;;;;;;;22.43;10.63;;;-2.80;99.90;;;;;;4937969;29;20072;-85
2022/03/07 01:52:41;;;;;;;20.80;9.90;;;-2.80;99.90;;;;;;4920219;29;20051;-84
2022/03/07 01:55:09;;;;;;;19.23;9.83;;;-2.80;99.90;;;;;;4920847;29;20567;-84
2022/03/07 01:57:40;;;;;;;18.57;9.57;;;-2.80;99.90;;;;;;4921193;29;20395;-85
2022/03/07 02:00:19;;;;;;;22.80;10.13;;;-2.80;99.90;;;;;;4919959;29;20039;-85
2022/03/07 02:02:45;;;;;;;22.30;10.20;;;-2.80;99.90;;;;;;4937882;29;20079;-84
2022/03/07 02:05:12;;;;;;;20.60;10.37;;;-2.80;99.90;;;;;;4920259;29;20138;-84
2022/03/07 02:07:38;;;;;;;20.17;10.43;;;-2.80;99.90;;;;;;4929060;29;20087;-84
2022/03/07 02:10:08;;;;;;;18.60;9.70;;;-2.80;99.90;;;;;;4942307;29;20059;-84
2022/03/07 02:12:34;;;;;;;18.60;10.00;;;-2.80;99.90;;;;;;4926559;29;20047;-85
2022/03/07 02:15:00;;;;;;;24.43;9.90;;;-2.90;99.90;;;;;;4921073;29;20424;-84
2022/03/07 02:17:26;;;;;;;20.40;10.53;;;-2.90;99.90;;;;;;4920388;29;20051;-84
2022/03/07 02:19:51;;;;;;;24.90;11.00;;;-2.90;99.90;;;;;;4920648;29;20032;-84
2022/03/07 02:22:17;;;;;;;23.03;10.97;;;-2.90;99.90;;;;;;4919696;29;20052;-84
2022/03/07 02:24:43;;;;;;;21.60;10.87;;;-2.90;99.90;;;;;;4920634;29;20044;-84
2022/03/07 02:27:11;;;;;;;19.70;10.53;;;-2.90;99.90;;;;;;4919581;29;20052;-84
2022/03/07 02:29:37;;;;;;;23.47;10.10;;;-2.90;99.90;;;;;;4920295;29;20055;-84
2022/03/07 02:32:04;;;;;;;21.10;10.43;;;-3.00;99.90;;;;;;4919893;29;20531;-84
2022/03/07 02:34:30;;;;;;;22.00;10.00;;;-3.00;99.90;;;;;;4919421;29;20492;-84
2022/03/07 02:36:56;;;;;;;24.40;11.07;;;-3.00;99.90;;;;;;4920216;29;20139;-84
2022/03/07 02:39:22;;;;;;;19.87;10.73;;;-3.00;99.90;;;;;;4919750;29;20071;-84
2022/03/07 02:41:47;;;;;;;22.33;10.97;;;-3.00;99.90;;;;;;4936623;29;20366;-84
2022/03/07 02:44:13;;;;;;;21.70;10.37;;;-3.00;99.90;;;;;;4919559;29;20118;-84
2022/03/07 02:46:39;;;;;;;24.00;10.80;;;-3.00;99.90;;;;;;4911978;29;20052;-84
2022/03/07 02:49:06;;;;;;;20.90;10.57;;;-3.00;99.90;;;;;;4935824;29;20055;-84
2022/03/07 02:51:32;;;;;;;21.10;9.97;;;-3.10;99.90;;;;;;4936747;29;20087;-84
2022/03/07 02:53:58;;;;;;;22.43;10.37;;;-3.00;99.90;;;;;;4919509;29;20062;-84
2022/03/07 02:56:24;;;;;;;23.03;11.40;;;-3.10;99.90;;;;;;4918748;29;20048;-84
2022/03/07 02:58:49;;;;;;;22.27;10.87;;;-3.10;99.90;;;;;;4936832;29;20468;-84
2022/03/07 03:01:15;;;;;;;23.37;11.07;;;-3.10;99.90;;;;;;4918434;29;20044;-84
2022/03/07 03:03:41;;;;;;;23.80;11.70;;;-3.10;99.90;;;;;;4933958;29;20083;-84
2022/03/07 03:06:07;;;;;;;23.73;11.43;;;-3.10;99.90;;;;;;4918845;29;20044;-84
2022/03/07 03:08:33;;;;;;;21.50;10.87;;;-3.10;99.90;;;;;;4919256;29;20052;-84
2022/03/07 03:10:59;;;;;;;24.47;11.33;;;-3.10;99.90;;;;;;4918548;29;20052;-84
2022/03/07 03:13:25;;;;;;;24.93;11.23;;;-3.20;99.90;;;;;;4936220;29;20056;-84
2022/03/07 03:15:52;;;;;;;23.10;10.23;;;-3.20;99.90;;;;;;4919747;29;20063;-84
2022/03/07 03:18:19;;;;;;;21.83;10.30;;;-3.20;99.90;;;;;;4919580;29;20048;-83
2022/03/07 03:20:48;;;;;;;20.83;10.83;;;-3.20;99.90;;;;;;4919635;29;20051;-84
2022/03/07 03:23:14;;;;;;;21.00;10.63;;;-3.30;99.90;;;;;;4917898;29;20055;-83
2022/03/07 03:25:39;;;;;;;24.53;11.00;;;-3.30;99.90;;;;;;4919013;29;20056;-83
2022/03/07 03:28:06;;;;;;;25.07;12.27;;;-3.20;99.90;;;;;;4918808;29;20043;-84
2022/03/07 03:30:32;;;;;;;24.20;12.37;;;-3.20;99.90;;;;;;4918412;29;20040;-84
2022/03/07 03:32:58;;;;;;;22.43;10.90;;;-3.10;99.90;;;;;;4936329;29;20062;-84
2022/03/07 03:35:24;;;;;;;22.93;11.13;;;-3.00;99.90;;;;;;4918834;29;20051;-84
2022/03/07 03:37:50;;;;;;;24.67;12.50;;;-2.90;99.90;;;;;;4918214;29;20069;-83
2022/03/07 03:40:15;;;;;;;24.13;12.47;;;-2.90;99.90;;;;;;4918920;29;20040;-84
2022/03/07 03:42:41;;;;;;;25.37;12.27;;;-2.50;99.90;;;;;;4919333;29;20102;-84
2022/03/07 03:45:08;;;;;;;26.60;13.50;;;-2.70;99.90;;;;;;4918136;29;20105;-84
2022/03/07 03:47:43;;;;;;;25.90;12.03;;;-2.70;99.90;;;;;;4936040;29;20126;-84
2022/03/07 03:50:12;;;;;;;23.10;12.37;;;-2.60;99.90;;;;;;4918503;29;20054;-84
2022/03/07 03:52:39;;;;;;;22.10;12.60;;;-2.60;99.90;;;;;;4935081;29;20060;-84
2022/03/07 03:55:06;;;;;;;25.43;12.20;;;-2.50;99.90;;;;;;4918777;29;20409;-84
2022/03/07 03:57:31;;;;;;;24.60;12.97;;;-2.40;99.90;;;;;;4918469;29;20048;-84
2022/03/07 03:59:57;;;;;;;24.60;12.97;;;-2.40;99.90;;;;;;4918109;29;20062;-83
2022/03/07 04:02:23;;;;;;;24.30;12.30;;;-2.40;99.90;;;;;;4918476;29;20702;-84
2022/03/07 04:04:49;;;;;;;24.60;12.90;;;-2.30;99.90;;;;;;4919107;29;20174;-84
2022/03/07 04:07:14;;;;;;;25.40;12.80;;;-2.30;99.90;;;;;;4934790;29;20508;-84
2022/03/07 04:09:40;;;;;;;24.43;12.60;;;-2.30;99.90;;;;;;4918707;29;20063;-84
2022/03/07 04:12:06;;;;;;;24.83;12.70;;;-2.30;99.90;;;;;;4935212;29;20048;-83
2022/03/07 04:14:32;;;;;;;23.87;12.33;;;-2.30;99.90;;;;;;4917391;29;20069;-83
2022/03/07 04:16:58;;;;;;;23.53;11.70;;;-2.30;99.90;;;;;;4918846;29;20059;-84
2022/03/07 04:19:23;;;;;;;21.53;11.87;;;-2.40;99.90;;;;;;4918397;29;20077;-84
2022/03/07 04:21:49;;;;;;;24.37;12.10;;;-2.40;99.90;;;;;;4918009;29;20060;-83
2022/03/07 04:24:15;;;;;;;25.80;13.00;;;-2.50;99.90;;;;;;4918206;29;20107;-84
2022/03/07 04:26:42;;;;;;;24.93;12.70;;;-2.50;99.90;;;;;;4934630;29;20044;-84
2022/03/07 04:29:08;;;;;;;23.30;12.10;;;-2.50;99.90;;;;;;4918277;29;20040;-83
2022/03/07 04:31:39;;;;;;;22.30;11.87;;;-2.50;99.90;;;;;;4918311;29;20103;-83
2022/03/07 04:34:09;;;;;;;22.60;11.77;;;-2.50;99.90;;;;;;4917575;29;20043;-84
2022/03/07 04:36:36;;;;;;;22.33;12.23;;;-2.60;99.90;;;;;;4924524;29;20067;-84
2022/03/07 04:39:03;;;;;;;24.50;12.70;;;-2.40;99.90;;;;;;4924477;29;20043;-83
2022/03/07 04:41:29;;;;;;;25.70;12.87;;;-2.60;99.90;;;;;;4940890;29;20135;-84
2022/03/07 04:43:54;;;;;;;25.17;13.27;;;-2.50;99.90;;;;;;4924650;29;20119;-83
2022/03/07 04:46:20;;;;;;;25.53;12.60;;;-2.60;99.90;;;;;;4924537;29;20061;-84
2022/03/07 04:48:46;;;;;;;25.77;11.70;;;-2.50;99.90;;;;;;4923697;29;20040;-83
2022/03/07 04:51:12;;;;;;;25.27;12.90;;;-2.50;99.90;;;;;;4923557;29;20488;-84
2022/03/07 04:53:37;;;;;;;25.60;12.67;;;-2.50;99.90;;;;;;4923271;29;20051;-84
2022/03/07 04:56:03;;;;;;;26.43;13.10;;;-2.50;99.90;;;;;;4922754;29;20054;-84
2022/03/07 04:58:29;;;;;;;25.03;14.03;;;-2.50;99.90;;;;;;4924643;29;20453;-83
2022/03/07 05:00:54;;;;;;;27.57;13.67;;;-2.50;99.90;;;;;;4919015;29;20142;-84
2022/03/07 05:03:23;;;;;;;25.13;13.13;;;-2.30;99.90;;;;;;4919445;29;20051;-83
2022/03/07 05:05:50;;;;;;;24.07;13.10;;;-2.50;99.90;;;;;;4942985;29;20098;-84
2022/03/07 05:08:15;;;;;;;29.03;13.30;;;-2.50;99.90;;;;;;4965622;29;20055;-82
2022/03/07 05:10:41;;;;;;;22.97;11.87;;;-2.50;99.90;;;;;;4961966;29;20063;-83
2022/03/07 05:13:07;;;;;;;26.40;12.13;;;-2.60;99.90;;;;;;4947761;29;20065;-83
2022/03/07 05:15:32;;;;;;;25.50;13.07;;;-2.60;99.90;;;;;;4960897;28;20047;-84
2022/03/07 05:17:58;;;;;;;25.43;13.07;;;-1.40;99.90;;;;;;4959944;29;20053;-84
2022/03/07 05:20:26;;;;;;;23.17;11.90;;;-2.60;99.90;;;;;;4960133;29;20051;-83
2022/03/07 05:22:52;;;;;;;24.67;12.07;;;-2.70;99.90;;;;;;4959507;28;20049;-83
2022/03/07 05:25:19;;;;;;;26.50;12.77;;;-2.70;99.90;;;;;;4958989;28;20061;-83
2022/03/07 05:27:45;;;;;;;22.93;12.13;;;-2.60;99.90;;;;;;4943003;29;20047;-84
2022/03/07 05:30:16;;;;;;;28.83;13.00;;;-2.70;99.90;;;;;;4942484;29;20324;-83
2022/03/07 05:32:46;;;;;;;27.23;12.40;;;-2.70;99.90;;;;;;4943359;29;20114;-84
2022/03/07 05:35:12;;;;;;;21.17;11.93;;;-2.60;99.90;;;;;;4942847;28;20079;-84
2022/03/07 05:37:38;;;;;;;24.83;12.23;;;-2.40;99.90;;;;;;4942178;29;20086;-84
2022/03/07 05:40:06;;;;;;;24.33;12.67;;;-2.70;99.90;;;;;;4942753;29;20432;-83
2022/03/07 05:42:35;;;;;;;24.43;12.73;;;-2.70;99.90;;;;;;4943397;29;20094;-83
2022/03/07 05:45:02;;;;;;;21.97;12.20;;;-2.70;99.90;;;;;;4958318;29;20043;-84
2022/03/07 05:47:27;;;;;;;23.00;13.00;;;-2.60;99.90;;;;;;4955388;28;20047;-83
2022/03/07 05:49:53;;;;;;;25.77;12.90;;;-2.60;99.90;;;;;;4957412;29;20039;-83
2022/03/07 05:52:19;;;;;;;21.23;12.30;;;-2.60;99.90;;;;;;4938878;29;20051;-83
2022/03/07 05:54:44;;;;;;;26.03;13.03;;;-2.60;99.90;;;;;;4940442;29;20047;-83
2022/03/07 05:57:10;;;;;;;23.60;12.60;;;-2.50;99.90;;;;;;4955402;28;20083;-83
2022/03/07 05:59:36;;;;;;;27.47;13.53;;;-2.30;99.90;;;;;;4938881;29;20061;-83
2022/03/07 06:02:02;;;;;;;25.27;13.23;;;-2.50;99.90;;;;;;4939992;29;20403;-84
2022/03/07 06:04:27;;;;;;;27.07;12.80;;;-2.50;99.90;;;;;;4939643;29;20047;-83
2022/03/07 06:06:53;;;;;;;23.77;13.00;;;-2.50;99.90;;;;;;4938891;29;20107;-83
2022/03/07 06:09:18;;;;;;;28.77;14.00;;;-2.50;99.90;;;;;;4939523;29;20051;-83
2022/03/07 06:11:44;;;;;;;24.33;12.40;;;-2.50;99.90;;;;;;4939435;29;20043;-83
2022/03/07 06:14:09;;;;;;;24.40;12.07;;;-2.40;99.90;;;;;;4938622;29;20059;-84
2022/03/07 06:16:35;;;;;;;26.57;13.33;;;-2.50;99.90;;;;;;4939622;29;20086;-84
2022/03/07 06:19:00;;;;;;;23.63;12.40;;;-2.50;99.90;;;;;;4939579;29;20054;-85
2022/03/07 06:21:27;;;;;;;24.93;12.53;;;-2.50;99.90;;;;;;4927255;29;20480;-89
2022/03/07 06:23:52;;;;;;;23.50;12.37;;;-2.50;99.90;;;;;;4920351;29;20044;-88
2022/03/07 06:26:18;;;;;;;27.97;13.33;;;-2.40;99.90;;;;;;4919728;29;20059;-88
2022/03/07 06:28:44;;;;;;;25.90;13.07;;;-2.20;99.90;;;;;;4920337;29;20050;-90
2022/03/07 06:31:09;;;;;;;28.50;13.73;;;-2.50;99.90;;;;;;4919880;29;20508;-85
2022/03/07 06:33:36;;;;;;;23.47;12.20;;;-2.50;99.90;;;;;;4919806;29;20047;-90
2022/03/07 06:36:03;;;;;;;27.63;13.37;;;-2.60;99.90;;;;;;4920406;29;20504;-88
2022/03/07 06:38:29;;;;;;;25.33;12.70;;;-2.60;99.90;;;;;;4920581;29;20051;-88
2022/03/07 06:40:55;;;;;;;23.70;12.27;;;-2.50;99.90;;;;;;4921188;29;20056;-87
2022/03/07 06:43:20;;;;;;;25.17;12.23;;;-2.50;99.90;;;;;;4920211;29;20039;-88
2022/03/07 06:45:46;;;;;;;24.57;12.77;;;-2.50;99.90;;;;;;4920236;29;20051;-89
2022/03/07 06:48:11;;;;;;;26.10;12.50;;;-2.50;99.90;;;;;;4919216;29;20039;-87
2022/03/07 06:50:37;;;;;;;26.13;13.13;;;-2.40;99.90;;;;;;4922963;29;20040;-89
2022/03/07 06:53:03;;;;;;;25.77;12.80;;;-2.40;99.90;;;;;;4919699;29;20051;-89
2022/03/07 06:55:28;;;;;;;28.40;13.33;;;-2.30;99.90;;;;;;4919670;29;20415;-88
2022/03/07 06:57:55;;;;;;;25.10;12.90;;;-2.40;99.90;;;;;;4919358;29;20106;-87
2022/03/07 07:00:20;;;;;;;28.20;12.63;;;-2.30;99.90;;;;;;4919437;29;20054;-86
2022/03/07 07:02:47;;;;;;;26.77;13.80;;;-1.40;99.90;;;;;;4919166;29;20051;-86
2022/03/07 07:05:14;;;;;;;26.13;13.87;;;-2.20;99.90;;;;;;4919573;29;20066;-86
2022/03/07 07:07:40;;;;;;;24.83;12.47;;;-2.20;99.90;;;;;;4936753;29;20047;-86
2022/03/07 07:10:07;;;;;;;29.53;14.40;;;-1.40;99.90;;;;;;4918754;29;20039;-85
2022/03/07 07:12:33;;;;;;;29.70;14.60;;;-2.20;99.90;;;;;;4919341;29;20407;-84
2022/03/07 07:14:59;;;;;;;27.93;13.67;;;-1.10;99.90;;;;;;4936350;29;20067;-85
2022/03/07 07:17:25;;;;;;;30.63;14.20;;;-1.10;99.90;;;;;;4918426;29;20058;-83
2022/03/07 07:19:50;;;;;;;27.90;14.20;;;-0.60;99.90;;;;;;4936366;29;20042;-84
2022/03/07 07:22:16;;;;;;;28.03;14.17;;;-2.00;99.90;;;;;;4919054;29;20054;-86
2022/03/07 07:24:42;;;;;;;27.90;14.77;;;-2.00;99.90;;;;;;4918465;29;20048;-85
2022/03/07 07:27:08;;;;;;;26.80;14.50;;;-0.90;99.90;;;;;;4918554;29;20092;-85
2022/03/07 07:29:34;;;;;;;32.60;15.70;;;-1.60;99.90;;;;;;4918001;29;20055;-85
2022/03/07 07:32:01;;;;;;;27.20;14.43;;;-1.40;99.90;;;;;;4955129;29;20376;-85
2022/03/07 07:34:27;;;;;;;31.47;14.80;;;-1.30;99.90;;;;;;4938055;29;20055;-86
2022/03/07 07:36:53;;;;;;;30.63;14.77;;;-0.20;99.90;;;;;;4937378;29;20050;-85
2022/03/07 07:39:18;;;;;;;30.17;14.23;;;-1.30;99.90;;;;;;4937751;29;20172;-86
2022/03/07 07:41:44;;;;;;;29.90;14.73;;;0.20;99.90;;;;;;4940405;29;20051;-87
2022/03/07 07:44:09;;;;;;;30.27;14.30;;;-0.90;99.90;;;;;;4954140;29;20058;-85
2022/03/07 07:46:35;;;;;;;25.83;13.97;;;-0.30;99.90;;;;;;4944889;29;20047;-86
2022/03/07 07:49:01;;;;;;;28.63;14.07;;;0.30;99.90;;;;;;4918690;29;20062;-86
2022/03/07 07:51:26;;;;;;;26.57;13.20;;;-0.40;99.90;;;;;;4934753;29;20447;-87
2022/03/07 07:53:52;;;;;;;29.07;13.90;;;-0.30;99.90;;;;;;4937564;29;20142;-86
2022/03/07 07:56:17;;;;;;;25.13;11.90;;;-0.20;99.90;;;;;;4937314;29;20054;-87
2022/03/07 07:58:43;;;;;;;22.67;12.00;;;0.00;99.90;;;;;;4937104;29;20046;-86
2022/03/07 08:01:09;;;;;;;23.50;11.63;;;0.20;99.90;;;;;;4937378;29;20058;-85
2022/03/07 08:03:35;;;;;;;25.40;12.00;;;1.10;99.90;;;;;;4954708;29;20043;-85
2022/03/07 08:06:00;;;;;;;23.23;11.23;;;0.40;99.90;;;;;;4954305;29;20522;-85
2022/03/07 08:08:26;;;;;;;20.97;11.57;;;0.50;99.90;;;;;;4941798;29;20098;-85
2022/03/07 08:10:52;;;;;;;22.57;11.87;;;0.60;99.90;;;;;;4942617;29;20074;-86
2022/03/07 08:13:17;;;;;;;23.40;11.60;;;0.70;99.90;;;;;;4936885;29;20079;-85
2022/03/07 08:15:43;;;;;;;22.40;12.07;;;0.80;99.90;;;;;;4954644;29;20047;-86
2022/03/07 08:18:09;;;;;;;23.63;11.10;;;0.90;99.90;;;;;;4936987;29;20046;-88
2022/03/07 08:20:37;;;;;;;20.00;10.90;;;1.00;99.90;;;;;;4936816;29;20042;-88
2022/03/07 08:23:03;;;;;;;21.33;10.63;;;1.10;99.90;;;;;;4937598;29;20067;-87
2022/03/07 08:25:28;;;;;;;24.83;10.37;;;1.20;99.90;;;;;;4933606;29;20044;-87
2022/03/07 08:27:54;;;;;;;21.00;10.40;;;1.30;99.90;;;;;;4925622;29;20060;-87
2022/03/07 08:30:22;;;;;;;22.37;10.63;;;1.40;99.90;;;;;;4930688;29;20035;-86
2022/03/07 08:32:49;;;;;;;20.20;10.13;;;1.50;99.90;;;;;;4925565;29;20179;-86
2022/03/07 08:35:16;;;;;;;18.67;9.23;;;3.00;99.90;;;;;;4926071;29;20044;-86
2022/03/07 08:37:45;;;;;;;21.00;9.30;;;1.80;99.90;;;;;;4946385;29;20047;-85
2022/03/07 08:40:12;;;;;;;20.43;9.27;;;1.80;99.90;;;;;;4924626;29;20048;-87
2022/03/07 08:42:38;;;;;;;19.63;9.80;;;1.90;99.90;;;;;;4935439;29;20040;-88
2022/03/07 08:45:06;;;;;;;17.97;8.13;;;2.00;99.90;;;;;;4935312;29;20054;-89
2022/03/07 08:47:32;;;;;;;16.30;8.57;;;2.10;99.90;;;;;;4918017;29;20059;-87
2022/03/07 08:49:57;;;;;;;15.90;7.40;;;2.20;99.90;;;;;;4918504;29;20044;-87
2022/03/07 08:52:23;;;;;;;15.70;7.63;;;2.40;99.90;;;;;;4917948;29;20047;-87
2022/03/07 08:54:49;;;;;;;16.60;7.20;;;2.40;99.90;;;;;;4918041;29;20098;-88
2022/03/07 08:57:15;;;;;;;16.27;7.60;;;2.50;99.90;;;;;;4917709;29;20099;-87
2022/03/07 08:59:42;;;;;;;17.07;7.70;;;2.60;99.90;;;;;;4918865;29;20048;-88
2022/03/07 09:02:09;;;;;;;17.70;7.73;;;2.60;99.90;;;;;;4917916;29;20381;-87
2022/03/07 09:04:36;;;;;;;16.83;8.33;;;2.80;99.90;;;;;;4918413;29;20071;-85
2022/03/07 09:07:02;;;;;;;13.80;5.90;;;2.90;99.90;;;;;;4918951;29;20492;-86
2022/03/07 09:09:28;;;;;;;13.43;6.27;;;3.00;99.90;;;;;;4917310;29;20079;-86
2022/03/07 09:11:54;;;;;;;15.10;6.70;;;3.10;99.90;;;;;;4918191;29;20052;-86
2022/03/07 09:14:19;;;;;;;17.00;6.33;;;3.10;99.90;;;;;;4917664;29;20496;-86
2022/03/07 09:16:45;;;;;;;12.00;6.00;;;3.10;99.90;;;;;;4917869;29;20056;-86
2022/03/07 09:19:10;;;;;;;13.93;5.90;;;3.10;99.90;;;;;;4918435;29;20422;-86
2022/03/07 09:21:36;;;;;;;15.10;5.83;;;3.30;99.90;;;;;;4919131;29;20063;-86
2022/03/07 09:24:03;;;;;;;12.73;5.53;;;3.30;99.90;;;;;;4921430;29;20086;-86
2022/03/07 09:26:28;;;;;;;11.50;4.70;;;3.50;99.90;;;;;;4921412;29;20539;-87
2022/03/07 09:28:54;;;;;;;10.77;4.17;;;3.60;99.90;;;;;;4921633;29;20127;-87
2022/03/07 09:31:20;;;;;;;13.03;5.03;;;3.80;99.90;;;;;;4920861;29;20079;-87
2022/03/07 09:33:46;;;;;;;13.43;5.30;;;3.90;99.90;;;;;;4921340;29;20043;-87
2022/03/07 09:36:12;;;;;;;12.10;4.73;;;4.00;99.90;;;;;;4937896;29;20055;-88
2022/03/07 09:38:38;;;;;;;12.37;5.00;;;4.00;99.90;;;;;;4921516;29;20040;-87
2022/03/07 09:41:04;;;;;;;10.37;3.50;;;4.10;99.90;;;;;;4921428;29;20169;-86
2022/03/07 09:43:30;;;;;;;13.10;4.80;;;4.10;99.90;;;;;;4937881;29;20113;-86
2022/03/07 09:45:56;;;;;;;11.80;3.53;;;4.20;99.90;;;;;;4920974;29;20075;-86
2022/03/07 09:48:23;;;;;;;10.40;3.37;;;4.20;99.90;;;;;;4921133;29;20059;-86
2022/03/07 09:50:49;;;;;;;11.77;3.90;;;4.20;99.90;;;;;;4937527;29;20048;-87
2022/03/07 09:53:17;;;;;;;10.53;3.30;;;4.30;99.90;;;;;;4938447;29;20506;-86
2022/03/07 09:55:44;;;;;;;10.80;4.10;;;4.30;99.90;;;;;;4921356;29;20162;-86
2022/03/07 09:58:10;;;;;;;10.00;4.00;;;4.40;99.90;;;;;;4920169;29;20047;-86
2022/03/07 10:00:41;;;;;;;11.37;4.70;;;4.40;99.90;;;;;;4921325;29;20130;-86
2022/03/07 10:03:09;;;;;;;12.97;4.63;;;4.50;99.90;;;;;;4920648;29;20048;-87
2022/03/07 10:05:46;;;;;;;11.63;5.00;;;4.50;99.90;;;;;;4937491;29;20051;-86
2022/03/07 10:08:27;;;;;;;12.57;5.20;;;4.70;99.90;;;;;;4921011;29;20047;-87
2022/03/07 10:10:55;;;;;;;11.17;4.30;;;4.80;99.90;;;;;;4921122;29;20047;-87
2022/03/07 10:13:22;;;;;;;12.10;4.97;;;5.00;99.90;;;;;;4920073;29;20134;-86
2022/03/07 10:16:00;;;;;;;11.43;4.97;;;5.10;99.90;;;;;;4921204;29;20062;-87
2022/03/07 10:18:27;;;;;;;14.30;5.87;;;5.10;99.90;;;;;;4920565;29;20046;-87
2022/03/07 10:20:55;;;;;;;13.23;6.17;;;5.30;99.90;;;;;;4921052;29;20051;-87
2022/03/07 10:23:22;;;;;;;12.37;5.70;;;5.40;99.90;;;;;;4937576;29;20178;-87
2022/03/07 10:25:48;;;;;;;14.20;5.70;;;5.60;99.90;;;;;;4936991;29;20051;-87
2022/03/07 10:28:14;;;;;;;13.70;6.03;;;5.70;99.90;;;;;;4938487;29;20044;-86
2022/03/07 10:30:40;;;;;;;13.97;6.10;;;5.80;99.90;;;;;;4937558;29;20087;-87
2022/03/07 10:33:11;;;;;;;12.67;6.17;;;6.90;99.90;;;;;;4918835;29;20087;-87
2022/03/07 10:35:44;;;;;;;14.60;5.97;;;6.10;99.90;;;;;;4920897;29;20055;-89
2022/03/07 10:38:13;;;;;;;11.88;6.03;;;6.30;99.90;;;;;;4920440;29;20052;-87
2022/03/07 10:40:46;;;;;;;15.00;6.53;;;6.50;99.90;;;;;;4919336;29;20102;-87
2022/03/07 10:43:12;;;;;;;;;;;6.50;99.90;;;;;;4921310;29;20062;-88
2022/03/07 10:45:50;;;;;;;13.33;6.10;;;6.70;99.90;;;;;;4920238;29;19922;-88
2022/03/07 10:48:18;;;;;;;12.97;5.73;;;6.90;99.90;;;;;;4918918;29;20059;-88
2022/03/07 10:50:52;;;;;;;12.77;6.53;;;7.00;99.90;;;;;;4920117;29;20134;-88
2022/03/07 10:53:18;;;;;;;12.97;6.50;;;7.80;99.90;;;;;;4936639;29;20314;-88
2022/03/07 10:56:02;;;;;;;13.43;5.87;;;7.20;99.90;;;;;;4919344;29;20043;-88
2022/03/07 10:58:28;;;;;;;;;;;7.50;99.90;;;;;;4919283;29;20138;-89
2022/03/07 11:01:04;;;;;;;12.10;5.80;;;8.80;99.90;;;;;;4918348;29;19926;-89
2022/03/07 11:03:33;;;;;;;11.50;5.50;;;7.30;99.90;;;;;;4939129;29;20098;-87
2022/03/07 11:06:04;;;;;;;10.10;5.20;;;7.30;99.90;;;;;;4920758;29;20079;-88
2022/03/07 11:08:30;;;;;;;10.57;5.37;;;6.60;99.90;;;;;;4919407;29;20051;-88
2022/03/07 11:11:05;;;;;;;11.13;4.90;;;6.60;99.90;;;;;;4919717;29;20055;-88
2022/03/07 11:13:34;;;;;;;12.20;6.17;;;6.20;99.90;;;;;;4942622;29;20050;-87
2022/03/07 11:16:02;;;;;;;12.63;5.63;;;6.60;99.90;;;;;;4931218;29;20157;-90
2022/03/07 11:18:39;;;;;;;12.67;5.23;;;7.70;99.90;;;;;;4921753;29;20488;-88
2022/03/07 11:21:10;;;;;;;14.23;6.03;;;7.00;99.90;;;;;;4919948;29;20051;-86
2022/03/07 11:23:48;;;;;;;11.77;4.90;;;7.30;99.90;;;;;;4935844;29;20044;-91
2022/03/07 11:26:14;;;;;;;13.20;5.13;;;7.60;99.90;;;;;;4919604;29;20484;-93
2022/03/07 11:28:40;;;;;;;11.77;5.73;;;7.90;99.90;;;;;;4918859;29;20050;-94
2022/03/07 11:31:06;;;;;;;12.13;5.57;;;8.00;99.90;;;;;;4919110;29;20047;-90
2022/03/07 11:33:37;;;;;;;11.55;5.00;;;8.50;99.90;;;;;;4920054;29;20188;-91
2022/03/07 11:36:17;;;;;;;10.60;5.25;;;8.70;99.90;;;;;;4920324;29;20063;-93
2022/03/07 11:38:55;;;;;;;11.15;5.05;;;8.70;99.90;;;;;;4919941;29;20051;-92
2022/03/07 11:41:31;;;;;;;11.48;5.28;;;8.90;99.90;;;;;;4922893;29;20040;-90
2022/03/07 11:44:03;;;;;;;11.63;4.78;;;9.20;99.90;;;;;;4918441;29;20043;-90
2022/03/07 11:46:33;;;;;;;11.80;5.38;;;10.30;99.90;;;;;;4920472;29;20047;-85
2022/03/07 11:49:00;;;;;;;11.25;5.38;;;9.40;99.90;;;;;;4920009;29;20058;-87
2022/03/07 11:51:36;;;;;;;12.03;4.83;;;10.30;99.90;;;;;;4917443;29;20056;-89
2022/03/07 11:54:02;;;;;;;11.85;4.90;;;9.30;99.90;;;;;;4918983;29;20039;-91
2022/03/07 11:56:29;;;;;;;11.68;4.90;;;11.00;99.90;;;;;;4919767;29;20057;-91
2022/03/07 11:58:58;;;;;;;10.20;4.70;;;8.70;99.90;;;;;;4918748;29;20048;-90
2022/03/07 12:01:25;;;;;;;9.65;4.00;;;9.10;99.90;;;;;;4919084;29;20091;-91
2022/03/07 12:03:52;;;;;;;10.00;3.92;;;10.10;99.90;;;;;;4919214;29;20107;-90
2022/03/07 12:06:20;;;;;;;9.18;4.00;;;9.40;99.90;;;;;;4920077;29;20071;-88
2022/03/07 12:08:53;;;;;;;8.77;4.00;;;9.60;99.90;;;;;;4920626;29;20079;-88
2022/03/07 12:11:31;;;;;;;9.23;3.90;;;9.70;99.90;;;;;;4935248;29;20052;-88
2022/03/07 12:14:02;;;;;;;10.25;4.28;;;9.70;99.90;;;;;;4918793;29;20056;-88
2022/03/07 12:16:49;;;;;;;11.50;4.65;;;9.80;99.90;;;;;;4916899;29;20087;-92
2022/03/07 12:19:20;;;;;;;11.32;4.75;;;9.60;99.90;;;;;;4924228;29;20488;-90
2022/03/07 12:21:47;;;;;;;9.48;4.32;;;9.80;99.90;;;;;;4920178;29;20044;-92
2022/03/07 12:24:15;;;;;;;10.38;4.88;;;11.00;99.90;;;;;;4919754;29;20080;-90
2022/03/07 12:26:54;;;;;;;10.63;4.53;;;10.50;99.90;;;;;;4921958;29;20040;-90
2022/03/07 12:29:25;;;;;;;9.27;4.05;;;10.10;99.90;;;;;;4919496;29;20484;-89
2022/03/07 12:31:53;;;;;;;9.57;4.57;;;10.00;99.90;;;;;;4918509;29;20508;-89
2022/03/07 12:34:29;;;;;;;10.35;4.50;;;10.90;99.90;;;;;;4918399;29;20055;-90